sensor_id;sensor_type;location;lat;lon;timestamp;P1;durP1;ratioP1;P2;durP2;ratioP2
25637;SDS011;13496;51.040;13.680;2022-11-15T00:02:15;12.60;;;11.30;;
25637;SDS011;13496;51.040;13.680;2022-11-15T00:07:35;12.17;;;10.97;;
25637;SDS011;13496;51.040;13.680;2022-11-15T00:12:55;12.00;;;10.83;;
25637;SDS011;13496;51.040;13.680;2022-11-15T00:18:15;12.57;;;11.40;;
25637;SDS011;13496;51.040;13.680;2022-11-15T00:23:36;12.20;;;11.00;;
25637;SDS011;13496;51.040;13.680;2022-11-15T00:28:57;11.93;;;10.77;;
25637;SDS011;13496;51.040;13.680;2022-11-15T00:34:17;12.13;;;10.83;;
25637;SDS011;13496;51.040;13.680;2022-11-15T00:39:38;12.03;;;10.93;;
25637;SDS011;13496;51.040;13.680;2022-11-15T00:44:58;11.73;;;10.63;;
25637;SDS011;13496;51.040;13.680;2022-11-15T00:50:18;11.57;;;10.47;;
25637;SDS011;13496;51.040;13.680;2022-11-15T00:55:38;11.37;;;10.37;;
25637;SDS011;13496;51.040;13.680;2022-11-15T01:01:12;12.47;;;11.27;;
25637;SDS011;13496;51.040;13.680;2022-11-15T01:06:33;11.57;;;10.47;;
25637;SDS011;13496;51.040;13.680;2022-11-15T01:11:53;11.00;;;10.00;;
25637;SDS011;13496;51.040;13.680;2022-11-15T01:17:14;10.87;;;9.77;;
25637;SDS011;13496;51.040;13.680;2022-11-15T01:22:34;11.70;;;10.60;;
25637;SDS011;13496;51.040;13.680;2022-11-15T01:27:54;11.33;;;10.23;;
25637;SDS011;13496;51.040;13.680;2022-11-15T01:33:15;10.97;;;9.87;;
25637;SDS011;13496;51.040;13.680;2022-11-15T01:38:35;11.50;;;10.40;;
25637;SDS011;13496;51.040;13.680;2022-11-15T01:43:56;11.00;;;10.00;;
25637;SDS011;13496;51.040;13.680;2022-11-15T01:49:38;11.60;;;10.57;;
25637;SDS011;13496;51.040;13.680;2022-11-15T02:00:55;11.27;;;10.27;;
25637;SDS011;13496;51.040;13.680;2022-11-15T02:06:15;10.43;;;9.53;;
25637;SDS011;13496;51.040;13.680;2022-11-15T02:11:36;11.17;;;10.07;;
25637;SDS011;13496;51.040;13.680;2022-11-15T02:28:27;10.60;;;9.70;;
25637;SDS011;13496;51.040;13.680;2022-11-15T02:39:51;10.40;;;9.50;;
25637;SDS011;13496;51.040;13.680;2022-11-15T02:45:24;10.10;;;9.20;;
25637;SDS011;13496;51.040;13.680;2022-11-15T02:50:50;11.20;;;10.10;;
25637;SDS011;13496;51.040;13.680;2022-11-15T02:56:11;10.93;;;9.93;;
25637;SDS011;13496;51.040;13.680;2022-11-15T03:01:56;10.17;;;9.27;;
25637;SDS011;13496;51.040;13.680;2022-11-15T03:12:51;9.93;;;9.13;;
25637;SDS011;13496;51.040;13.680;2022-11-15T03:18:28;10.07;;;9.17;;
25637;SDS011;13496;51.040;13.680;2022-11-15T03:23:53;10.10;;;9.20;;
25637;SDS011;13496;51.040;13.680;2022-11-15T03:29:26;10.67;;;9.67;;
25637;SDS011;13496;51.040;13.680;2022-11-15T03:34:58;10.50;;;9.60;;
25637;SDS011;13496;51.040;13.680;2022-11-15T03:41:09;10.40;;;9.50;;
25637;SDS011;13496;51.040;13.680;2022-11-15T03:46:17;9.47;;;8.67;;
25637;SDS011;13496;51.040;13.680;2022-11-15T03:51:44;10.17;;;9.27;;
25637;SDS011;13496;51.040;13.680;2022-11-15T03:57:04;10.40;;;9.50;;
25637;SDS011;13496;51.040;13.680;2022-11-15T04:02:24;10.70;;;9.80;;
25637;SDS011;13496;51.040;13.680;2022-11-15T04:07:45;10.03;;;9.03;;
25637;SDS011;13496;51.040;13.680;2022-11-15T04:13:05;9.73;;;8.83;;
25637;SDS011;13496;51.040;13.680;2022-11-15T04:18:25;9.33;;;8.53;;
25637;SDS011;13496;51.040;13.680;2022-11-15T04:23:45;10.47;;;9.47;;
25637;SDS011;13496;51.040;13.680;2022-11-15T04:29:25;10.63;;;9.63;;
25637;SDS011;13496;51.040;13.680;2022-11-15T04:34:54;9.00;;;8.30;;
25637;SDS011;13496;51.040;13.680;2022-11-15T04:40:15;9.77;;;8.97;;
25637;SDS011;13496;51.040;13.680;2022-11-15T04:45:35;9.17;;;8.37;;
25637;SDS011;13496;51.040;13.680;2022-11-15T04:50:56;9.50;;;8.70;;
25637;SDS011;13496;51.040;13.680;2022-11-15T04:56:16;9.63;;;8.73;;
25637;SDS011;13496;51.040;13.680;2022-11-15T05:01:37;9.00;;;8.20;;
25637;SDS011;13496;51.040;13.680;2022-11-15T05:06:57;9.90;;;9.00;;
25637;SDS011;13496;51.040;13.680;2022-11-15T05:12:18;8.90;;;8.10;;
25637;SDS011;13496;51.040;13.680;2022-11-15T05:17:38;8.80;;;8.10;;
25637;SDS011;13496;51.040;13.680;2022-11-15T05:22:59;9.07;;;8.27;;
25637;SDS011;13496;51.040;13.680;2022-11-15T05:28:19;10.07;;;9.07;;
25637;SDS011;13496;51.040;13.680;2022-11-15T05:33:40;9.00;;;8.20;;
25637;SDS011;13496;51.040;13.680;2022-11-15T05:39:01;9.20;;;8.30;;
25637;SDS011;13496;51.040;13.680;2022-11-15T05:44:23;8.90;;;8.10;;
25637;SDS011;13496;51.040;13.680;2022-11-15T05:49:45;9.17;;;8.27;;
25637;SDS011;13496;51.040;13.680;2022-11-15T05:55:08;9.13;;;8.23;;
25637;SDS011;13496;51.040;13.680;2022-11-15T06:00:29;8.97;;;8.17;;
25637;SDS011;13496;51.040;13.680;2022-11-15T06:05:49;9.63;;;7.90;;
25637;SDS011;13496;51.040;13.680;2022-11-15T06:11:09;8.70;;;7.90;;
25637;SDS011;13496;51.040;13.680;2022-11-15T06:16:30;9.13;;;8.23;;
25637;SDS011;13496;51.040;13.680;2022-11-15T06:21:50;8.10;;;7.40;;
25637;SDS011;13496;51.040;13.680;2022-11-15T06:27:11;8.53;;;7.73;;
25637;SDS011;13496;51.040;13.680;2022-11-15T06:32:31;8.50;;;7.70;;
25637;SDS011;13496;51.040;13.680;2022-11-15T06:37:51;9.43;;;8.00;;
25637;SDS011;13496;51.040;13.680;2022-11-15T06:43:12;12.57;;;8.43;;
25637;SDS011;13496;51.040;13.680;2022-11-15T06:48:33;8.37;;;7.57;;
25637;SDS011;13496;51.040;13.680;2022-11-15T06:53:54;9.00;;;8.10;;
25637;SDS011;13496;51.040;13.680;2022-11-15T06:59:14;8.27;;;7.47;;
25637;SDS011;13496;51.040;13.680;2022-11-15T07:04:35;8.20;;;7.50;;
25637;SDS011;13496;51.040;13.680;2022-11-15T07:09:56;8.23;;;7.47;;
25637;SDS011;13496;51.040;13.680;2022-11-15T07:15:17;8.47;;;7.77;;
25637;SDS011;13496;51.040;13.680;2022-11-15T07:20:38;8.40;;;7.30;;
25637;SDS011;13496;51.040;13.680;2022-11-15T07:25:59;8.20;;;7.40;;
25637;SDS011;13496;51.040;13.680;2022-11-15T07:31:20;7.63;;;7.00;;
25637;SDS011;13496;51.040;13.680;2022-11-15T07:36:40;8.20;;;7.40;;
25637;SDS011;13496;51.040;13.680;2022-11-15T07:42:01;8.43;;;7.63;;
25637;SDS011;13496;51.040;13.680;2022-11-15T07:47:40;7.77;;;7.00;;
25637;SDS011;13496;51.040;13.680;2022-11-15T07:53:00;8.80;;;7.70;;
25637;SDS011;13496;51.040;13.680;2022-11-15T07:58:21;8.03;;;7.30;;
25637;SDS011;13496;51.040;13.680;2022-11-15T08:03:41;7.70;;;6.90;;
25637;SDS011;13496;51.040;13.680;2022-11-15T08:09:02;7.47;;;6.77;;
25637;SDS011;13496;51.040;13.680;2022-11-15T08:14:22;7.73;;;7.03;;
25637;SDS011;13496;51.040;13.680;2022-11-15T08:19:43;7.70;;;6.90;;
25637;SDS011;13496;51.040;13.680;2022-11-15T08:25:03;8.40;;;7.60;;
25637;SDS011;13496;51.040;13.680;2022-11-15T08:30:24;7.53;;;6.83;;
25637;SDS011;13496;51.040;13.680;2022-11-15T08:35:45;7.70;;;7.00;;
25637;SDS011;13496;51.040;13.680;2022-11-15T08:41:05;6.93;;;6.33;;
25637;SDS011;13496;51.040;13.680;2022-11-15T08:46:25;7.33;;;6.63;;
25637;SDS011;13496;51.040;13.680;2022-11-15T08:51:46;7.07;;;6.47;;
25637;SDS011;13496;51.040;13.680;2022-11-15T08:57:07;7.93;;;7.05;;
25637;SDS011;13496;51.040;13.680;2022-11-15T09:02:29;7.40;;;6.80;;
25637;SDS011;13496;51.040;13.680;2022-11-15T09:07:52;7.43;;;6.72;;
25637;SDS011;13496;51.040;13.680;2022-11-15T09:13:14;7.50;;;6.77;;
25637;SDS011;13496;51.040;13.680;2022-11-15T09:18:34;8.00;;;6.17;;
25637;SDS011;13496;51.040;13.680;2022-11-15T09:23:55;8.23;;;6.70;;
25637;SDS011;13496;51.040;13.680;2022-11-15T09:29:15;7.37;;;6.67;;
25637;SDS011;13496;51.040;13.680;2022-11-15T09:34:36;7.20;;;6.50;;
25637;SDS011;13496;51.040;13.680;2022-11-15T09:39:56;6.77;;;6.17;;
25637;SDS011;13496;51.040;13.680;2022-11-15T09:45:28;7.07;;;6.37;;
25637;SDS011;13496;51.040;13.680;2022-11-15T09:50:54;6.80;;;6.00;;
25637;SDS011;13496;51.040;13.680;2022-11-15T09:56:03;7.15;;;6.45;;
25637;SDS011;13496;51.040;13.680;2022-11-15T10:06:46;6.83;;;6.23;;
25637;SDS011;13496;51.040;13.680;2022-11-15T10:11:55;6.57;;;5.97;;
25637;SDS011;13496;51.040;13.680;2022-11-15T10:22:28;6.97;;;6.27;;
25637;SDS011;13496;51.040;13.680;2022-11-15T10:27:36;6.57;;;5.93;;
25637;SDS011;13496;51.040;13.680;2022-11-15T10:32:39;7.03;;;6.43;;
25637;SDS011;13496;51.040;13.680;2022-11-15T10:37:43;7.23;;;6.53;;
25637;SDS011;13496;51.040;13.680;2022-11-15T10:42:44;7.13;;;6.53;;
25637;SDS011;13496;51.040;13.680;2022-11-15T10:47:46;6.87;;;6.17;;
25637;SDS011;13496;51.040;13.680;2022-11-15T10:52:48;6.00;;;5.43;;
25637;SDS011;13496;51.040;13.680;2022-11-15T10:57:51;6.60;;;6.00;;
25637;SDS011;13496;51.040;13.680;2022-11-15T11:13:21;6.20;;;5.70;;
25637;SDS011;13496;51.040;13.680;2022-11-15T11:18:28;6.60;;;6.00;;
25637;SDS011;13496;51.040;13.680;2022-11-15T11:34:15;6.90;;;6.30;;
25637;SDS011;13496;51.040;13.680;2022-11-15T11:49:43;6.72;;;6.13;;
25637;SDS011;13496;51.040;13.680;2022-11-15T11:55:02;6.75;;;6.15;;
25637;SDS011;13496;51.040;13.680;2022-11-15T12:00:18;6.67;;;6.07;;
25637;SDS011;13496;51.040;13.680;2022-11-15T12:16:17;7.18;;;6.57;;
25637;SDS011;13496;51.040;13.680;2022-11-15T12:26:51;7.40;;;6.18;;
25637;SDS011;13496;51.040;13.680;2022-11-15T12:31:58;6.95;;;6.30;;
25637;SDS011;13496;51.040;13.680;2022-11-15T12:58:41;6.43;;;5.93;;
25637;SDS011;13496;51.040;13.680;2022-11-15T13:19:38;6.55;;;5.95;;
25637;SDS011;13496;51.040;13.680;2022-11-15T13:24:40;6.63;;;6.03;;
25637;SDS011;13496;51.040;13.680;2022-11-15T13:29:42;7.03;;;6.43;;
25637;SDS011;13496;51.040;13.680;2022-11-15T13:34:45;6.00;;;5.50;;
25637;SDS011;13496;51.040;13.680;2022-11-15T13:39:49;6.75;;;6.15;;
25637;SDS011;13496;51.040;13.680;2022-11-15T13:44:58;7.07;;;6.47;;
25637;SDS011;13496;51.040;13.680;2022-11-15T13:50:02;6.25;;;5.65;;
25637;SDS011;13496;51.040;13.680;2022-11-15T13:55:15;7.65;;;5.80;;
25637;SDS011;13496;51.040;13.680;2022-11-15T14:00:39;6.80;;;6.20;;
25637;SDS011;13496;51.040;13.680;2022-11-15T14:05:46;6.20;;;5.70;;
25637;SDS011;13496;51.040;13.680;2022-11-15T14:16:21;7.13;;;6.53;;
25637;SDS011;13496;51.040;13.680;2022-11-15T14:21:33;7.43;;;6.73;;
25637;SDS011;13496;51.040;13.680;2022-11-15T14:26:35;8.00;;;7.30;;
25637;SDS011;13496;51.040;13.680;2022-11-15T14:31:36;8.50;;;7.70;;
25637;SDS011;13496;51.040;13.680;2022-11-15T14:36:38;8.40;;;7.70;;
25637;SDS011;13496;51.040;13.680;2022-11-15T14:41:40;8.40;;;7.60;;
25637;SDS011;13496;51.040;13.680;2022-11-15T14:46:41;9.20;;;8.40;;
25637;SDS011;13496;51.040;13.680;2022-11-15T14:51:43;9.47;;;8.13;;
25637;SDS011;13496;51.040;13.680;2022-11-15T14:56:45;9.57;;;8.77;;
25637;SDS011;13496;51.040;13.680;2022-11-15T15:01:47;8.90;;;8.10;;
25637;SDS011;13496;51.040;13.680;2022-11-15T15:06:48;9.18;;;8.38;;
25637;SDS011;13496;51.040;13.680;2022-11-15T15:11:50;9.93;;;9.03;;
25637;SDS011;13496;51.040;13.680;2022-11-15T15:16:52;10.40;;;9.40;;
25637;SDS011;13496;51.040;13.680;2022-11-15T15:21:55;9.75;;;8.88;;
25637;SDS011;13496;51.040;13.680;2022-11-15T15:26:57;9.52;;;8.63;;
25637;SDS011;13496;51.040;13.680;2022-11-15T15:31:58;9.23;;;8.43;;
25637;SDS011;13496;51.040;13.680;2022-11-15T15:37:34;10.50;;;9.55;;
25637;SDS011;13496;51.040;13.680;2022-11-15T15:42:28;9.57;;;8.87;;
25637;SDS011;13496;51.040;13.680;2022-11-15T15:47:30;9.57;;;8.68;;
25637;SDS011;13496;51.040;13.680;2022-11-15T15:52:31;10.37;;;9.40;;
25637;SDS011;13496;51.040;13.680;2022-11-15T15:57:33;10.00;;;9.13;;
25637;SDS011;13496;51.040;13.680;2022-11-15T16:02:35;9.60;;;8.80;;
25637;SDS011;13496;51.040;13.680;2022-11-15T16:07:37;9.93;;;9.02;;
25637;SDS011;13496;51.040;13.680;2022-11-15T16:12:40;9.88;;;8.98;;
25637;SDS011;13496;51.040;13.680;2022-11-15T16:17:47;9.98;;;9.07;;
25637;SDS011;13496;51.040;13.680;2022-11-15T16:22:52;10.23;;;9.23;;
25637;SDS011;13496;51.040;13.680;2022-11-15T16:27:53;9.80;;;8.90;;
25637;SDS011;13496;51.040;13.680;2022-11-15T16:32:55;9.27;;;8.47;;
25637;SDS011;13496;51.040;13.680;2022-11-15T16:37:57;10.05;;;9.15;;
25637;SDS011;13496;51.040;13.680;2022-11-15T16:42:58;9.50;;;8.70;;
25637;SDS011;13496;51.040;13.680;2022-11-15T16:48:03;9.48;;;8.60;;
25637;SDS011;13496;51.040;13.680;2022-11-15T16:53:05;10.02;;;8.50;;
25637;SDS011;13496;51.040;13.680;2022-11-15T16:58:07;9.77;;;8.87;;
25637;SDS011;13496;51.040;13.680;2022-11-15T17:03:10;9.80;;;8.90;;
25637;SDS011;13496;51.040;13.680;2022-11-15T17:08:12;9.98;;;9.18;;
25637;SDS011;13496;51.040;13.680;2022-11-15T17:13:14;9.80;;;9.00;;
25637;SDS011;13496;51.040;13.680;2022-11-15T17:18:15;10.05;;;9.05;;
25637;SDS011;13496;51.040;13.680;2022-11-15T17:23:17;9.45;;;8.55;;
25637;SDS011;13496;51.040;13.680;2022-11-15T17:28:19;9.15;;;8.35;;
25637;SDS011;13496;51.040;13.680;2022-11-15T17:33:20;9.35;;;8.45;;
25637;SDS011;13496;51.040;13.680;2022-11-15T17:38:22;9.10;;;8.30;;
25637;SDS011;13496;51.040;13.680;2022-11-15T17:43:24;9.45;;;8.65;;
25637;SDS011;13496;51.040;13.680;2022-11-15T17:48:26;8.57;;;7.73;;
25637;SDS011;13496;51.040;13.680;2022-11-15T17:53:35;9.10;;;8.18;;
25637;SDS011;13496;51.040;13.680;2022-11-15T17:58:39;9.38;;;8.48;;
25637;SDS011;13496;51.040;13.680;2022-11-15T18:03:41;9.37;;;8.47;;
25637;SDS011;13496;51.040;13.680;2022-11-15T18:08:44;9.33;;;8.43;;
25637;SDS011;13496;51.040;13.680;2022-11-15T18:13:48;8.98;;;8.07;;
25637;SDS011;13496;51.040;13.680;2022-11-15T18:18:52;8.57;;;7.80;;
25637;SDS011;13496;51.040;13.680;2022-11-15T18:23:56;9.05;;;8.25;;
25637;SDS011;13496;51.040;13.680;2022-11-15T18:29:03;8.63;;;7.83;;
25637;SDS011;13496;51.040;13.680;2022-11-15T18:34:05;8.25;;;7.55;;
25637;SDS011;13496;51.040;13.680;2022-11-15T18:39:08;9.07;;;8.27;;
25637;SDS011;13496;51.040;13.680;2022-11-15T18:44:16;8.37;;;7.67;;
25637;SDS011;13496;51.040;13.680;2022-11-15T18:49:18;8.40;;;7.60;;
25637;SDS011;13496;51.040;13.680;2022-11-15T18:54:20;8.82;;;8.02;;
25637;SDS011;13496;51.040;13.680;2022-11-15T18:59:22;8.07;;;7.37;;
25637;SDS011;13496;51.040;13.680;2022-11-15T19:04:24;8.33;;;7.53;;
25637;SDS011;13496;51.040;13.680;2022-11-15T19:09:25;8.20;;;7.50;;
25637;SDS011;13496;51.040;13.680;2022-11-15T19:14:32;9.50;;;8.60;;
25637;SDS011;13496;51.040;13.680;2022-11-15T19:19:34;8.13;;;7.43;;
25637;SDS011;13496;51.040;13.680;2022-11-15T19:24:36;8.10;;;7.30;;
25637;SDS011;13496;51.040;13.680;2022-11-15T19:29:37;8.30;;;7.50;;
25637;SDS011;13496;51.040;13.680;2022-11-15T19:34:40;8.73;;;7.90;;
25637;SDS011;13496;51.040;13.680;2022-11-15T19:39:43;8.13;;;7.43;;
25637;SDS011;13496;51.040;13.680;2022-11-15T19:44:45;8.17;;;7.27;;
25637;SDS011;13496;51.040;13.680;2022-11-15T19:49:46;7.67;;;6.87;;
25637;SDS011;13496;51.040;13.680;2022-11-15T19:54:48;10.20;;;7.53;;
25637;SDS011;13496;51.040;13.680;2022-11-15T19:59:50;24.35;;;9.65;;
25637;SDS011;13496;51.040;13.680;2022-11-15T20:04:52;11.20;;;8.07;;
25637;SDS011;13496;51.040;13.680;2022-11-15T20:09:53;12.57;;;7.70;;
25637;SDS011;13496;51.040;13.680;2022-11-15T20:14:55;12.55;;;8.05;;
25637;SDS011;13496;51.040;13.680;2022-11-15T20:19:57;13.43;;;8.33;;
25637;SDS011;13496;51.040;13.680;2022-11-15T20:24:59;8.70;;;7.80;;
25637;SDS011;13496;51.040;13.680;2022-11-15T20:30:01;11.03;;;7.63;;
25637;SDS011;13496;51.040;13.680;2022-11-15T20:35:02;9.33;;;7.13;;
25637;SDS011;13496;51.040;13.680;2022-11-15T20:40:04;10.80;;;7.37;;
25637;SDS011;13496;51.040;13.680;2022-11-15T20:45:07;8.23;;;7.28;;
25637;SDS011;13496;51.040;13.680;2022-11-15T20:50:09;8.35;;;7.32;;
25637;SDS011;13496;51.040;13.680;2022-11-15T20:55:10;7.53;;;6.83;;
25637;SDS011;13496;51.040;13.680;2022-11-15T21:00:12;8.30;;;6.87;;
25637;SDS011;13496;51.040;13.680;2022-11-15T21:05:14;10.30;;;7.05;;
25637;SDS011;13496;51.040;13.680;2022-11-15T21:10:16;8.60;;;6.70;;
25637;SDS011;13496;51.040;13.680;2022-11-15T21:15:36;8.07;;;7.23;;
25637;SDS011;13496;51.040;13.680;2022-11-15T21:20:38;9.70;;;6.80;;
25637;SDS011;13496;51.040;13.680;2022-11-15T21:25:40;7.95;;;6.70;;
25637;SDS011;13496;51.040;13.680;2022-11-15T21:30:50;7.10;;;6.43;;
25637;SDS011;13496;51.040;13.680;2022-11-15T21:36:10;7.17;;;6.47;;
25637;SDS011;13496;51.040;13.680;2022-11-15T21:41:12;7.32;;;6.22;;
25637;SDS011;13496;51.040;13.680;2022-11-15T21:46:13;7.10;;;6.40;;
25637;SDS011;13496;51.040;13.680;2022-11-15T21:51:15;7.70;;;6.90;;
25637;SDS011;13496;51.040;13.680;2022-11-15T21:56:17;6.93;;;6.32;;
25637;SDS011;13496;51.040;13.680;2022-11-15T22:01:19;7.30;;;6.60;;
25637;SDS011;13496;51.040;13.680;2022-11-15T22:06:39;6.70;;;5.63;;
25637;SDS011;13496;51.040;13.680;2022-11-15T22:11:41;6.73;;;6.00;;
25637;SDS011;13496;51.040;13.680;2022-11-15T22:16:43;6.47;;;5.70;;
25637;SDS011;13496;51.040;13.680;2022-11-15T22:21:44;6.47;;;5.87;;
25637;SDS011;13496;51.040;13.680;2022-11-15T22:26:46;6.68;;;6.07;;
25637;SDS011;13496;51.040;13.680;2022-11-15T22:31:48;6.65;;;5.78;;
25637;SDS011;13496;51.040;13.680;2022-11-15T22:36:50;6.37;;;5.73;;
25637;SDS011;13496;51.040;13.680;2022-11-15T22:41:51;5.90;;;5.35;;
25637;SDS011;13496;51.040;13.680;2022-11-15T22:46:53;6.50;;;5.90;;
25637;SDS011;13496;51.040;13.680;2022-11-15T22:51:55;6.22;;;5.70;;
25637;SDS011;13496;51.040;13.680;2022-11-15T22:56:57;6.22;;;5.63;;
25637;SDS011;13496;51.040;13.680;2022-11-15T23:01:58;6.47;;;5.87;;
25637;SDS011;13496;51.040;13.680;2022-11-15T23:07:00;6.00;;;5.50;;
25637;SDS011;13496;51.040;13.680;2022-11-15T23:12:02;6.00;;;5.50;;
25637;SDS011;13496;51.040;13.680;2022-11-15T23:17:22;5.65;;;5.13;;
25637;SDS011;13496;51.040;13.680;2022-11-15T23:22:24;6.20;;;5.70;;
25637;SDS011;13496;51.040;13.680;2022-11-15T23:27:44;5.87;;;5.37;;
25637;SDS011;13496;51.040;13.680;2022-11-15T23:32:46;5.90;;;5.30;;
25637;SDS011;13496;51.040;13.680;2022-11-15T23:38:06;5.57;;;5.07;;
25637;SDS011;13496;51.040;13.680;2022-11-15T23:43:08;5.90;;;5.40;;
25637;SDS011;13496;51.040;13.680;2022-11-15T23:48:10;5.27;;;4.77;;
25637;SDS011;13496;51.040;13.680;2022-11-15T23:53:11;6.20;;;5.70;;
25637;SDS011;13496;51.040;13.680;2022-11-15T23:58:13;5.73;;;5.23;;
